createdAt,value
2024-04-19T00:00:54.926Z,95973.00
2024-04-19T00:01:54.773Z,95974.00
2024-04-19T00:02:54.925Z,95973.00
2024-04-19T00:03:54.881Z,95972.00
2024-04-19T00:04:54.931Z,95969.00
2024-04-19T00:05:54.909Z,95967.00
2024-04-19T00:06:54.913Z,95964.00
2024-04-19T00:07:54.923Z,95963.00
2024-04-19T00:08:55.025Z,95965.00
2024-04-19T00:09:55.078Z,95967.00
2024-04-19T00:10:55.267Z,95968.00
2024-04-19T00:11:55.246Z,95970.00
2024-04-19T00:12:55.359Z,95972.00
2024-04-19T00:13:55.447Z,95973.00
2024-04-19T00:14:55.616Z,95974.00
2024-04-19T00:15:55.763Z,95974.00
2024-04-19T00:16:55.907Z,95975.00
2024-04-19T00:17:55.942Z,95976.00
2024-04-19T00:18:56.018Z,95975.00
2024-04-19T00:19:56.085Z,95976.00
2024-04-19T00:20:56.195Z,95978.00
2024-04-19T00:21:56.351Z,95976.00
2024-04-19T00:22:56.492Z,95977.00
2024-04-19T00:23:56.666Z,95978.00
2024-04-19T00:24:56.772Z,95979.00
2024-04-19T00:25:56.770Z,95980.00
2024-04-19T00:26:56.896Z,95979.00
2024-04-19T00:27:57.070Z,95978.00
2024-04-19T00:28:57.212Z,95980.00
2024-04-19T00:29:57.403Z,95980.00
2024-04-19T00:30:57.467Z,95981.00
2024-04-19T00:31:57.533Z,95982.00
2024-04-19T00:33:07.838Z,95979.00
2024-04-19T00:33:58.737Z,95978.00
2024-04-19T00:35:07.703Z,95976.00
2024-04-19T00:35:57.635Z,95976.00
2024-04-19T00:36:57.640Z,95974.00
2024-04-19T00:37:57.653Z,95974.00
2024-04-19T00:38:57.622Z,95974.00
2024-04-19T00:39:57.644Z,95972.00
2024-04-19T00:40:57.639Z,95972.00
2024-04-19T00:41:57.641Z,95973.00
2024-04-19T00:42:57.723Z,95974.00
2024-04-19T00:43:57.653Z,95972.00
2024-04-19T00:44:57.669Z,95972.00
2024-04-19T00:45:57.636Z,95971.00
2024-04-19T00:46:57.695Z,95968.00
2024-04-19T00:47:57.687Z,95966.00
2024-04-19T00:48:57.686Z,95961.00
2024-04-19T00:49:57.663Z,95959.00
2024-04-19T00:50:57.669Z,95958.00
2024-04-19T00:51:57.671Z,95954.00
2024-04-19T00:52:57.683Z,95953.00
2024-04-19T00:53:57.654Z,95951.00
2024-04-19T00:54:57.664Z,95951.00
2024-04-19T00:55:57.675Z,95951.00
2024-04-19T00:56:57.668Z,95950.00
2024-04-19T00:57:57.671Z,95948.00
2024-04-19T00:58:57.769Z,95948.00
2024-04-19T00:59:57.806Z,95948.00
2024-04-19T01:00:58.029Z,95949.00
2024-04-19T01:01:58.087Z,95950.00
2024-04-19T01:02:58.270Z,95950.00
2024-04-19T01:03:58.422Z,95952.00
2024-04-19T01:04:58.478Z,95949.00
2024-04-19T01:05:58.608Z,95948.00
2024-04-19T01:06:58.779Z,95952.00
2024-04-19T01:07:58.769Z,95952.00
2024-04-19T01:08:58.882Z,95951.00
2024-04-19T01:09:58.984Z,95951.00
2024-04-19T01:10:59.166Z,95952.00
2024-04-19T01:11:59.308Z,95950.00
2024-04-19T01:12:59.457Z,95950.00
2024-04-19T01:13:59.585Z,95947.00
2024-04-19T01:14:59.615Z,95945.00
2024-04-19T01:16:00.446Z,95944.00
2024-04-19T01:16:59.744Z,95947.00
2024-04-19T01:17:59.868Z,95948.00
2024-04-19T01:18:59.879Z,95950.00
2024-04-19T01:19:59.911Z,95954.00
2024-04-19T01:21:00.035Z,95956.00
2024-04-19T01:22:00.096Z,95958.00
2024-04-19T01:23:00.139Z,95958.00
2024-04-19T01:24:00.258Z,95958.00
2024-04-19T01:25:00.356Z,95957.00
2024-04-19T01:26:00.523Z,95953.00
2024-04-19T01:27:00.680Z,95954.00
2024-04-19T01:28:02.751Z,95952.00
2024-04-19T01:29:00.864Z,95953.00
2024-04-19T01:30:00.905Z,95953.00
2024-04-19T01:31:00.970Z,95955.00
2024-04-19T01:32:01.019Z,95957.00
2024-04-19T01:33:01.210Z,95956.00
2024-04-19T01:34:01.371Z,95954.00
2024-04-19T01:35:01.210Z,95956.00
2024-04-19T01:36:01.253Z,95957.00
2024-04-19T01:37:01.323Z,95953.00
2024-04-19T01:38:01.471Z,95953.00
2024-04-19T01:39:01.534Z,95950.00
2024-04-19T01:40:01.653Z,95947.00
2024-04-19T01:41:01.814Z,95947.00
2024-04-19T01:42:01.967Z,95944.00
2024-04-19T01:43:02.117Z,95947.00
2024-04-19T01:44:02.220Z,95941.00
2024-04-19T01:45:02.340Z,95941.00
2024-04-19T01:46:02.419Z,95938.00
2024-04-19T01:47:02.556Z,95938.00
2024-04-19T01:48:02.672Z,95938.00
2024-04-19T01:49:02.821Z,95939.00
2024-04-19T01:50:02.854Z,95938.00
2024-04-19T01:51:03.000Z,95939.00
2024-04-19T01:52:03.159Z,95941.00
2024-04-19T01:53:03.318Z,95943.00
2024-04-19T01:54:08.673Z,95945.00
2024-04-19T01:55:03.479Z,95952.00
2024-04-19T01:56:03.501Z,95952.00
2024-04-19T01:57:03.452Z,95955.00
2024-04-19T01:58:08.518Z,95955.00
2024-04-19T01:59:03.516Z,95956.00
2024-04-19T02:00:03.532Z,95955.00
2024-04-19T02:01:03.550Z,95951.00
2024-04-19T02:02:03.607Z,95951.00
2024-04-19T02:03:03.489Z,95953.00
2024-04-19T02:04:03.497Z,95953.00
2024-04-19T02:05:03.552Z,95952.00
2024-04-19T02:06:03.662Z,95953.00
2024-04-19T02:07:03.771Z,95951.00
2024-04-19T02:08:03.891Z,95952.00
2024-04-19T02:09:03.938Z,95951.00
2024-04-19T02:10:04.094Z,95950.00
2024-04-19T02:11:04.292Z,95950.00
2024-04-19T02:12:04.428Z,95948.00
2024-04-19T02:13:04.547Z,95948.00
2024-04-19T02:14:04.720Z,95946.00
2024-04-19T02:15:04.895Z,95946.00
2024-04-19T02:16:05.006Z,95943.00
2024-04-19T02:17:05.283Z,95944.00
2024-04-19T02:18:05.390Z,95942.00
2024-04-19T02:19:05.509Z,95941.00
2024-04-19T02:20:05.660Z,95942.00
2024-04-19T02:21:05.715Z,95940.00
2024-04-19T02:22:05.793Z,95939.00
2024-04-19T02:23:05.882Z,95940.00
2024-04-19T02:24:05.891Z,95938.00
2024-04-19T02:25:05.956Z,95938.00
2024-04-19T02:26:06.116Z,95937.00
2024-04-19T02:27:06.262Z,95937.00
2024-04-19T02:28:06.482Z,95936.00
2024-04-19T02:29:06.479Z,95933.00
2024-04-19T02:30:06.586Z,95936.00
2024-04-19T02:31:06.698Z,95933.00
2024-04-19T02:32:06.763Z,95932.00
2024-04-19T02:33:07.095Z,95932.00
2024-04-19T02:34:06.982Z,95929.00
2024-04-19T02:35:07.080Z,95928.00
2024-04-19T02:36:07.241Z,95928.00
2024-04-19T02:37:07.414Z,95926.00
2024-04-19T02:38:07.532Z,95927.00
2024-04-19T02:39:07.576Z,95926.00
2024-04-19T02:40:07.616Z,95927.00
2024-04-19T02:41:07.768Z,95925.00
2024-04-19T02:42:07.854Z,95926.00
2024-04-19T02:43:08.056Z,95923.00
2024-04-19T02:44:08.180Z,95922.00
2024-04-19T02:45:08.376Z,95918.00
2024-04-19T02:46:08.610Z,95918.00
2024-04-19T02:47:08.712Z,95917.00
2024-04-19T02:48:08.857Z,95917.00
2024-04-19T02:49:08.918Z,95915.00
2024-04-19T02:50:09.033Z,95915.00
2024-04-19T02:51:10.020Z,95913.00
2024-04-19T02:52:09.193Z,95909.00
2024-04-19T02:53:09.256Z,95908.00
2024-04-19T02:54:09.257Z,95909.00
2024-04-19T02:55:09.324Z,95905.00
2024-04-19T02:56:09.388Z,95908.00
2024-04-19T02:57:09.436Z,95908.00
2024-04-19T02:58:14.510Z,95907.00
2024-04-19T02:59:09.525Z,95905.00
2024-04-19T03:00:09.515Z,95906.00
2024-04-19T03:01:09.605Z,95902.00
2024-04-19T03:02:09.531Z,95901.00
2024-04-19T03:03:09.569Z,95902.00
2024-04-19T03:04:09.748Z,95901.00
2024-04-19T03:05:09.544Z,95898.00
2024-04-19T03:06:09.597Z,95895.00
2024-04-19T03:07:09.607Z,95894.00
2024-04-19T03:08:09.673Z,95895.00
2024-04-19T03:09:09.674Z,95898.00
2024-04-19T03:10:10.505Z,95900.00
2024-04-19T03:11:09.758Z,95902.00
2024-04-19T03:12:09.855Z,95902.00
2024-04-19T03:13:09.803Z,95901.00
2024-04-19T03:14:09.863Z,95905.00
2024-04-19T03:15:09.921Z,95904.00
2024-04-19T03:16:09.985Z,95906.00
2024-04-19T03:17:10.051Z,95906.00
2024-04-19T03:18:10.137Z,95908.00
2024-04-19T03:19:10.111Z,95908.00
2024-04-19T03:20:10.160Z,95915.00
2024-04-19T03:21:10.361Z,95911.00
2024-04-19T03:22:10.369Z,95912.00
2024-04-19T03:23:10.431Z,95912.00
2024-04-19T03:24:10.501Z,95908.00
2024-04-19T03:25:10.597Z,95911.00
2024-04-19T03:26:10.766Z,95911.00
2024-04-19T03:27:10.821Z,95906.00
2024-04-19T03:28:15.994Z,95908.00
2024-04-19T03:29:10.875Z,95907.00
2024-04-19T03:30:10.883Z,95908.00
2024-04-19T03:31:10.853Z,95905.00
2024-04-19T03:32:10.857Z,95903.00
2024-04-19T03:33:10.933Z,95902.00
2024-04-19T03:34:10.948Z,95899.00
2024-04-19T03:35:10.968Z,95897.00
2024-04-19T03:36:11.038Z,95893.00
2024-04-19T03:37:18.365Z,95891.00
2024-04-19T03:38:18.312Z,95889.00
2024-04-19T03:39:18.281Z,95889.00
2024-04-19T03:40:18.330Z,95883.00
2024-04-19T03:41:18.377Z,95881.00
2024-04-19T03:42:18.468Z,95878.00
2024-04-19T03:43:23.521Z,95876.00
2024-04-19T03:44:18.585Z,95875.00
2024-04-19T03:45:18.574Z,95874.00
2024-04-19T03:46:18.505Z,95876.00
2024-04-19T03:47:18.565Z,95877.00
2024-04-19T03:48:19.062Z,95876.00
2024-04-19T03:49:18.549Z,95876.00
2024-04-19T03:50:18.491Z,95874.00
2024-04-19T03:51:18.574Z,95873.00
2024-04-19T03:52:18.578Z,95873.00
2024-04-19T03:53:18.673Z,95874.00
2024-04-19T03:54:18.690Z,95875.00
2024-04-19T03:55:18.759Z,95873.00
2024-04-19T03:56:18.790Z,95874.00
2024-04-19T03:57:18.937Z,95874.00
2024-04-19T03:58:18.934Z,95874.00
2024-04-19T03:59:18.957Z,95873.00
2024-04-19T04:00:19.239Z,95873.00
2024-04-19T04:01:19.243Z,95870.00
2024-04-19T04:02:19.422Z,95869.00
2024-04-19T04:03:24.594Z,95870.00
2024-04-19T04:04:19.590Z,95868.00
2024-04-19T04:05:19.593Z,95868.00
2024-04-19T04:06:19.627Z,95869.00
2024-04-19T04:07:19.598Z,95867.00
2024-04-19T04:08:19.642Z,95869.00
2024-04-19T04:09:19.688Z,95870.00
2024-04-19T04:10:19.608Z,95871.00
2024-04-19T04:11:19.716Z,95868.00
2024-04-19T04:12:19.776Z,95871.00
2024-04-19T04:13:24.987Z,95868.00
2024-04-19T04:14:19.948Z,95866.00
2024-04-19T04:15:19.972Z,95868.00
2024-04-19T04:16:19.952Z,95866.00
2024-04-19T04:17:19.973Z,95869.00
2024-04-19T04:18:20.144Z,95867.00
2024-04-19T04:19:20.746Z,95868.00
2024-04-19T04:20:19.977Z,95869.00
2024-04-19T04:21:20.052Z,95868.00
2024-04-19T04:22:20.096Z,95868.00
2024-04-19T04:23:20.144Z,95867.00
2024-04-19T04:24:20.171Z,95866.00
2024-04-19T04:25:20.223Z,95864.00
2024-04-19T04:26:20.220Z,95864.00
2024-04-19T04:27:20.288Z,95862.00
2024-04-19T04:28:20.282Z,95864.00
2024-04-19T04:29:20.344Z,95862.00
2024-04-19T04:30:20.433Z,95864.00
2024-04-19T04:31:20.411Z,95867.00
2024-04-19T04:32:20.484Z,95865.00
2024-04-19T04:33:20.535Z,95870.00
2024-04-19T04:34:20.630Z,95870.00
2024-04-19T04:35:20.736Z,95868.00
2024-04-19T04:36:20.840Z,95871.00
2024-04-19T04:37:20.870Z,95870.00
2024-04-19T04:38:20.994Z,95870.00
2024-04-19T04:39:21.097Z,95869.00
2024-04-19T04:40:21.192Z,95870.00
2024-04-19T04:41:21.353Z,95872.00
2024-04-19T04:42:21.576Z,95872.00
2024-04-19T04:43:21.704Z,95873.00
2024-04-19T04:44:21.985Z,95874.00
2024-04-19T04:45:21.948Z,95873.00
2024-04-19T04:46:22.019Z,95874.00
2024-04-19T04:47:22.184Z,95872.00
2024-04-19T04:48:22.266Z,95875.00
2024-04-19T04:49:22.310Z,95876.00
2024-04-19T04:50:22.376Z,95872.00
2024-04-19T04:51:22.495Z,95871.00
2024-04-19T04:52:22.549Z,95874.00
2024-04-19T04:53:27.627Z,95875.00
2024-04-19T04:54:22.650Z,95875.00
2024-04-19T04:55:22.621Z,95875.00
2024-04-19T04:56:22.628Z,95878.00
2024-04-19T04:57:22.671Z,95878.00
2024-04-19T04:58:22.639Z,95878.00
2024-04-19T04:59:22.655Z,95876.00
2024-04-19T05:00:22.662Z,95877.00
2024-04-19T05:01:22.661Z,95875.00
2024-04-19T05:02:22.831Z,95875.00
2024-04-19T05:03:23.052Z,95875.00
2024-04-19T05:04:23.189Z,95875.00
2024-04-19T05:05:23.291Z,95876.00
2024-04-19T05:06:23.453Z,95877.00
2024-04-19T05:07:23.420Z,95877.00
2024-04-19T05:08:23.534Z,95876.00
2024-04-19T05:09:23.600Z,95877.00
2024-04-19T05:10:23.639Z,95873.00
2024-04-19T05:11:23.735Z,95872.00
2024-04-19T05:12:23.875Z,95874.00
2024-04-19T05:13:23.855Z,95872.00
2024-04-19T05:14:23.925Z,95871.00
2024-04-19T05:15:24.063Z,95874.00
2024-04-19T05:16:24.447Z,95871.00
2024-04-19T05:17:24.175Z,95873.00
2024-04-19T05:18:24.299Z,95873.00
2024-04-19T05:19:24.265Z,95873.00
2024-04-19T05:20:24.391Z,95872.00
2024-04-19T05:21:24.535Z,95874.00
2024-04-19T05:22:24.698Z,95874.00
2024-04-19T05:23:24.876Z,95870.00
2024-04-19T05:24:25.047Z,95870.00
2024-04-19T05:25:25.198Z,95869.00
2024-04-19T05:26:25.283Z,95870.00
2024-04-19T05:27:25.411Z,95869.00
2024-04-19T05:28:26.252Z,95868.00
2024-04-19T05:29:25.459Z,95868.00
2024-04-19T05:30:25.493Z,95865.00
2024-04-19T05:31:25.499Z,95864.00
2024-04-19T05:32:25.561Z,95865.00
2024-04-19T05:33:25.563Z,95865.00
2024-04-19T05:34:25.584Z,95865.00
2024-04-19T05:35:25.616Z,95863.00
2024-04-19T05:36:25.689Z,95865.00
2024-04-19T05:37:25.772Z,95865.00
2024-04-19T05:38:25.884Z,95863.00
2024-04-19T05:39:25.970Z,95865.00
2024-04-19T05:40:26.063Z,95865.00
2024-04-19T05:41:26.367Z,95866.00
2024-04-19T05:42:26.239Z,95865.00
2024-04-19T05:43:26.385Z,95865.00
2024-04-19T05:44:26.535Z,95867.00
2024-04-19T05:45:26.748Z,95864.00
2024-04-19T05:46:26.836Z,95864.00
2024-04-19T05:47:27.039Z,95861.00
2024-04-19T05:48:27.218Z,95863.00
2024-04-19T05:49:27.405Z,95860.00
2024-04-19T05:50:27.553Z,95860.00
2024-04-19T05:51:27.822Z,95858.00
2024-04-19T05:52:27.775Z,95858.00
2024-04-19T05:53:27.822Z,95856.00
2024-04-19T05:54:27.913Z,95859.00
2024-04-19T05:55:28.957Z,95858.00
2024-04-19T05:56:28.040Z,95858.00
2024-04-19T05:57:28.195Z,95855.00
2024-04-19T05:58:28.277Z,95853.00
2024-04-19T05:59:28.378Z,95850.00
2024-04-19T06:00:28.568Z,95850.00
2024-04-19T06:01:28.796Z,95847.00
2024-04-19T06:02:28.825Z,95850.00
2024-04-19T06:03:28.988Z,95848.00
2024-04-19T06:04:29.011Z,95850.00
2024-04-19T06:05:29.102Z,95851.00
2024-04-19T06:06:29.150Z,95850.00
2024-04-19T06:07:29.213Z,95851.00
2024-04-19T06:08:29.314Z,95852.00
2024-04-19T06:09:29.470Z,95850.00
2024-04-19T06:10:29.541Z,95848.00
2024-04-19T06:11:29.710Z,95848.00
2024-04-19T06:12:29.827Z,95851.00
2024-04-19T06:13:29.947Z,95850.00
2024-04-19T06:14:29.955Z,95850.00
2024-04-19T06:15:30.025Z,95847.00
2024-04-19T06:16:30.099Z,95847.00
2024-04-19T06:17:30.229Z,95846.00
2024-04-19T06:18:30.501Z,95843.00
2024-04-19T06:19:30.370Z,95844.00
2024-04-19T06:20:30.435Z,95844.00
2024-04-19T06:21:30.488Z,95842.00
2024-04-19T06:22:30.565Z,95842.00
2024-04-19T06:23:30.723Z,95844.00
2024-04-19T06:24:30.910Z,95844.00
2024-04-19T06:25:31.935Z,95846.00
2024-04-19T06:26:31.153Z,95850.00
2024-04-19T06:27:31.288Z,95849.00
2024-04-19T06:28:31.360Z,95850.00
2024-04-19T06:29:31.462Z,95848.00
2024-04-19T06:30:31.609Z,95848.00
2024-04-19T06:31:31.691Z,95849.00
2024-04-19T06:32:31.779Z,95847.00
2024-04-19T06:33:31.897Z,95845.00
2024-04-19T06:34:32.002Z,95846.00
2024-04-19T06:35:32.162Z,95843.00
2024-04-19T06:36:32.313Z,95843.00
2024-04-19T06:37:32.392Z,95843.00
2024-04-19T06:38:32.538Z,95839.00
2024-04-19T06:39:32.751Z,95841.00
2024-04-19T06:40:32.826Z,95839.00
2024-04-19T06:41:32.867Z,95838.00
2024-04-19T06:42:33.035Z,95839.00
2024-04-19T06:43:33.121Z,95839.00
2024-04-19T06:44:33.242Z,95837.00
2024-04-19T06:45:33.402Z,95839.00
2024-04-19T06:46:33.491Z,95840.00
2024-04-19T06:47:33.644Z,95839.00
2024-04-19T06:48:34.037Z,95837.00
2024-04-19T06:49:33.836Z,95836.00
2024-04-19T06:50:33.990Z,95837.00
2024-04-19T06:51:35.955Z,95837.00
2024-04-19T06:52:34.077Z,95839.00
2024-04-19T06:53:34.089Z,95840.00
2024-04-19T06:54:34.082Z,95838.00
2024-04-19T06:55:34.098Z,95839.00
2024-04-19T06:56:34.085Z,95841.00
2024-04-19T06:57:34.103Z,95837.00
2024-04-19T06:58:34.106Z,95839.00
2024-04-19T06:59:34.099Z,95839.00
2024-04-19T07:00:41.800Z,95836.00
2024-04-19T07:01:35.124Z,95836.00
2024-04-19T07:02:34.179Z,95839.00
2024-04-19T07:03:34.295Z,95837.00
2024-04-19T07:04:34.204Z,95838.00
2024-04-19T07:05:34.106Z,95838.00
2024-04-19T07:06:40.595Z,95840.00
2024-04-19T07:07:35.122Z,95842.00
2024-04-19T07:08:34.110Z,95842.00
2024-04-19T07:09:34.186Z,95842.00
2024-04-19T07:10:34.100Z,95841.00
2024-04-19T07:11:34.121Z,95838.00
2024-04-19T07:12:34.168Z,95839.00
2024-04-19T07:13:34.113Z,95837.00
2024-04-19T07:14:34.127Z,95835.00
2024-04-19T07:15:34.156Z,95832.00
2024-04-19T07:16:35.293Z,95831.00
2024-04-19T07:17:34.161Z,95829.00
2024-04-19T07:18:34.320Z,95827.00
2024-04-19T07:19:34.291Z,95824.00
2024-04-19T07:20:34.318Z,95822.00
2024-04-19T07:21:34.412Z,95818.00
2024-04-19T07:22:34.465Z,95819.00
2024-04-19T07:23:34.504Z,95816.00
2024-04-19T07:24:34.549Z,95819.00
2024-04-19T07:25:39.957Z,95816.00
2024-04-19T07:26:35.635Z,95814.00
2024-04-19T07:27:39.467Z,95817.00
2024-04-19T07:28:35.667Z,95817.00
2024-04-19T07:29:34.630Z,95815.00
2024-04-19T07:30:34.667Z,95813.00
2024-04-19T07:31:34.663Z,95808.00
2024-04-19T07:32:34.871Z,95808.00
2024-04-19T07:33:34.692Z,95805.00
2024-04-19T07:34:34.681Z,95805.00
2024-04-19T07:35:34.672Z,95804.00
2024-04-19T07:36:34.715Z,95805.00
2024-04-19T07:37:34.709Z,95801.00
2024-04-19T07:38:34.724Z,95801.00
2024-04-19T07:39:34.814Z,95801.00
2024-04-19T07:40:34.855Z,95800.00
2024-04-19T07:41:37.017Z,95800.00
2024-04-19T07:42:35.040Z,95798.00
2024-04-19T07:43:35.651Z,95797.00
2024-04-19T07:44:35.182Z,95794.00
2024-04-19T07:45:35.223Z,95794.00
2024-04-19T07:46:35.337Z,95790.00
2024-04-19T07:47:35.445Z,95789.00
2024-04-19T07:48:35.445Z,95788.00
2024-04-19T07:49:35.471Z,95786.00
2024-04-19T07:50:35.515Z,95786.00
2024-04-19T07:51:35.585Z,95785.00
2024-04-19T07:52:35.603Z,95782.00
2024-04-19T07:53:35.656Z,95779.00
2024-04-19T07:54:35.745Z,95777.00
2024-04-19T07:55:35.753Z,95777.00
2024-04-19T07:56:35.854Z,95775.00
2024-04-19T07:57:35.977Z,95772.00
2024-04-19T07:58:37.058Z,95772.00
2024-04-19T07:59:36.035Z,95770.00
2024-04-19T08:00:36.178Z,95769.00
2024-04-19T08:01:36.153Z,95767.00
2024-04-19T08:02:36.137Z,95765.00
2024-04-19T08:03:36.181Z,95764.00
2024-04-19T08:04:36.304Z,95760.00
2024-04-19T08:05:36.245Z,95760.00
2024-04-19T08:06:36.387Z,95758.00
2024-04-19T08:07:43.608Z,95756.00
2024-04-19T08:08:43.610Z,95755.00
2024-04-19T08:09:43.609Z,95754.00
2024-04-19T08:10:43.610Z,95751.00
2024-04-19T08:11:43.638Z,95749.00
2024-04-19T08:12:43.630Z,95748.00
2024-04-19T08:13:43.633Z,95743.00
2024-04-19T08:14:43.611Z,95741.00
2024-04-19T08:15:43.621Z,95744.00
2024-04-19T08:16:43.631Z,95744.00
2024-04-19T08:17:43.630Z,95743.00
2024-04-19T08:18:43.676Z,95740.00
2024-04-19T08:19:43.623Z,95739.00
2024-04-19T08:20:43.644Z,95740.00
2024-04-19T08:21:43.673Z,95736.00
2024-04-19T08:22:43.660Z,95734.00
2024-04-19T08:23:43.644Z,95731.00
2024-04-19T08:24:43.730Z,95730.00
2024-04-19T08:25:43.647Z,95728.00
2024-04-19T08:26:43.663Z,95724.00
2024-04-19T08:27:43.912Z,95727.00
2024-04-19T08:28:43.693Z,95725.00
2024-04-19T08:29:43.711Z,95725.00
2024-04-19T08:30:43.801Z,95724.00
2024-04-19T08:31:43.915Z,95723.00
2024-04-19T08:32:44.125Z,95720.00
2024-04-19T08:33:44.174Z,95718.00
2024-04-19T08:34:44.277Z,95717.00
2024-04-19T08:35:44.454Z,95720.00
2024-04-19T08:36:44.514Z,95718.00
2024-04-19T08:37:44.602Z,95718.00
2024-04-19T08:38:44.698Z,95717.00
2024-04-19T08:39:46.684Z,95716.00
2024-04-19T08:40:44.842Z,95715.00
2024-04-19T08:41:44.909Z,95714.00
2024-04-19T08:42:44.976Z,95712.00
2024-04-19T08:43:45.028Z,95711.00
2024-04-19T08:44:45.130Z,95708.00
2024-04-19T08:45:45.262Z,95706.00
2024-04-19T08:46:45.341Z,95702.00
2024-04-19T08:47:45.556Z,95702.00
2024-04-19T08:48:45.738Z,95698.00
2024-04-19T08:49:45.702Z,95698.00
2024-04-19T08:50:45.841Z,95695.00
2024-04-19T08:52:00.434Z,95693.00
2024-04-19T08:53:09.001Z,95690.00
2024-04-19T08:53:47.028Z,95689.00
2024-04-19T08:54:46.005Z,95689.00
2024-04-19T08:55:45.978Z,95686.00
2024-04-19T08:56:46.053Z,95682.00
2024-04-19T08:57:46.069Z,95679.00
2024-04-19T08:58:50.716Z,95678.00
2024-04-19T08:59:48.531Z,95676.00
2024-04-19T09:00:47.123Z,95674.00
2024-04-19T09:01:46.025Z,95672.00
2024-04-19T09:02:46.053Z,95669.00
2024-04-19T09:03:46.195Z,95673.00
2024-04-19T09:04:46.179Z,95673.00
2024-04-19T09:05:46.046Z,95673.00
2024-04-19T09:06:46.145Z,95669.00
2024-04-19T09:07:46.050Z,95670.00
2024-04-19T09:08:46.055Z,95671.00
2024-04-19T09:09:46.091Z,95668.00
2024-04-19T09:10:46.071Z,95666.00
2024-04-19T09:11:46.102Z,95667.00
2024-04-19T09:12:46.128Z,95666.00
2024-04-19T09:13:46.070Z,95665.00
2024-04-19T09:14:46.097Z,95667.00
2024-04-19T09:15:46.223Z,95667.00
2024-04-19T09:16:46.256Z,95669.00
2024-04-19T09:17:46.454Z,95663.00
2024-04-19T09:18:46.494Z,95664.00
2024-04-19T09:19:46.609Z,95663.00
2024-04-19T09:20:46.735Z,95661.00
2024-04-19T09:21:46.905Z,95661.00
2024-04-19T09:22:46.998Z,95660.00
2024-04-19T09:23:47.070Z,95660.00
2024-04-19T09:24:47.204Z,95656.00
2024-04-19T09:25:47.284Z,95654.00
2024-04-19T09:26:47.427Z,95652.00
2024-04-19T09:27:47.550Z,95651.00
2024-04-19T09:28:47.607Z,95647.00
2024-04-19T09:29:47.740Z,95645.00
2024-04-19T09:30:47.930Z,95644.00
2024-04-19T09:31:48.031Z,95637.00
2024-04-19T09:32:48.204Z,95633.00
2024-04-19T09:33:48.277Z,95634.00
2024-04-19T09:34:48.298Z,95629.00
2024-04-19T09:35:48.400Z,95627.00
2024-04-19T09:36:48.647Z,95623.00
2024-04-19T09:37:48.630Z,95619.00
2024-04-19T09:38:48.706Z,95616.00
2024-04-19T09:39:48.978Z,95613.00
2024-04-19T09:40:48.959Z,95613.00
2024-04-19T09:41:49.068Z,95615.00
2024-04-19T09:42:49.375Z,95612.00
2024-04-19T09:43:49.341Z,95609.00
2024-04-19T09:44:49.397Z,95604.00
2024-04-19T09:45:49.587Z,95605.00
2024-04-19T09:46:49.682Z,95605.00
2024-04-19T09:47:49.741Z,95602.00
2024-04-19T09:48:49.808Z,95603.00
2024-04-19T09:49:49.870Z,95600.00
2024-04-19T09:50:49.940Z,95598.00
2024-04-19T09:51:50.110Z,95595.00
2024-04-19T09:52:50.008Z,95597.00
2024-04-19T09:53:50.105Z,95597.00
2024-04-19T09:54:50.195Z,95593.00
2024-04-19T09:55:50.221Z,95591.00
2024-04-19T09:56:50.385Z,95592.00
2024-04-19T09:57:50.492Z,95590.00
2024-04-19T09:58:50.538Z,95593.00
2024-04-19T09:59:50.626Z,95588.00
2024-04-19T10:00:50.803Z,95587.00
2024-04-19T10:01:50.898Z,95581.00
2024-04-19T10:02:50.966Z,95580.00
2024-04-19T10:03:51.188Z,95576.00
2024-04-19T10:04:51.244Z,95573.00
2024-04-19T10:05:51.251Z,95578.00
2024-04-19T10:06:51.402Z,95574.00
2024-04-19T10:07:51.417Z,95572.00
2024-04-19T10:08:51.517Z,95570.00
2024-04-19T10:09:51.668Z,95567.00
2024-04-19T10:10:51.741Z,95565.00
2024-04-19T10:11:51.917Z,95570.00
2024-04-19T10:12:52.112Z,95563.00
2024-04-19T10:13:52.145Z,95561.00
2024-04-19T10:14:52.242Z,95548.00
2024-04-19T10:15:52.350Z,95551.00
2024-04-19T10:16:52.366Z,95553.00
2024-04-19T10:17:52.458Z,95544.00
2024-04-19T10:18:52.587Z,95541.00
2024-04-19T10:19:54.668Z,95540.00
2024-04-19T10:20:52.721Z,95536.00
2024-04-19T10:21:52.803Z,95536.00
2024-04-19T10:22:52.790Z,95530.00
2024-04-19T10:23:52.827Z,95529.00
2024-04-19T10:24:52.887Z,95528.00
2024-04-19T10:25:52.907Z,95530.00
2024-04-19T10:26:53.034Z,95524.00
2024-04-19T10:27:53.172Z,95525.00
2024-04-19T10:28:52.962Z,95520.00
2024-04-19T10:29:53.014Z,95519.00
2024-04-19T10:30:53.049Z,95515.00
2024-04-19T10:31:53.024Z,95508.00
2024-04-19T10:32:53.119Z,95511.00
2024-04-19T10:33:53.098Z,95507.00
2024-04-19T10:34:53.118Z,95502.00
2024-04-19T10:35:53.160Z,95505.00
2024-04-19T10:36:53.200Z,95501.00
2024-04-19T10:37:53.232Z,95493.00
2024-04-19T10:38:53.361Z,95493.00
2024-04-19T10:39:53.457Z,95494.00
2024-04-19T10:40:53.428Z,95484.00
2024-04-19T10:41:53.499Z,95476.00
2024-04-19T10:42:53.563Z,95476.00
2024-04-19T10:43:53.668Z,95478.00
2024-04-19T10:44:53.717Z,95475.00
2024-04-19T10:45:53.993Z,95471.00
2024-04-19T10:46:53.856Z,95467.00
2024-04-19T10:47:54.058Z,95464.00
2024-04-19T10:48:54.068Z,95462.00
2024-04-19T10:49:54.078Z,95457.00
2024-04-19T10:50:54.194Z,95456.00
2024-04-19T10:51:54.422Z,95445.00
2024-04-19T10:52:54.390Z,95449.00
2024-04-19T10:53:54.499Z,95446.00
2024-04-19T10:54:54.644Z,95442.00
2024-04-19T10:55:54.748Z,95439.00
2024-04-19T10:56:54.815Z,95435.00
2024-04-19T10:57:54.892Z,95429.00
2024-04-19T10:58:54.959Z,95424.00
2024-04-19T10:59:54.997Z,95429.00
2024-04-19T11:00:55.141Z,95427.00
2024-04-19T11:01:55.240Z,95429.00
2024-04-19T11:03:06.620Z,95423.00
2024-04-19T11:03:56.263Z,95420.00
2024-04-19T11:04:55.240Z,95414.00
2024-04-19T11:05:55.212Z,95412.00
2024-04-19T11:06:55.364Z,95414.00
2024-04-19T11:07:55.232Z,95408.00
2024-04-19T11:08:55.214Z,95402.00
2024-04-19T11:09:55.292Z,95398.00
2024-04-19T11:10:55.302Z,95393.00
2024-04-19T11:11:55.484Z,95388.00
2024-04-19T11:12:55.385Z,95386.00
2024-04-19T11:13:55.278Z,95377.00
2024-04-19T11:14:55.329Z,95376.00
2024-04-19T11:15:58.543Z,95371.00
2024-04-19T11:16:55.363Z,95366.00
2024-04-19T11:17:55.440Z,95364.00
2024-04-19T11:18:55.479Z,95365.00
2024-04-19T11:19:55.358Z,95367.00
2024-04-19T11:21:04.930Z,95363.00
2024-04-19T11:21:56.450Z,95362.00
2024-04-19T11:22:55.369Z,95356.00
2024-04-19T11:23:55.378Z,95362.00
2024-04-19T11:24:55.412Z,95349.00
2024-04-19T11:25:55.374Z,95351.00
2024-04-19T11:26:55.389Z,95350.00
2024-04-19T11:27:55.442Z,95353.00
2024-04-19T11:28:55.423Z,95354.00
2024-04-19T11:29:55.455Z,95342.00
2024-04-19T11:30:55.468Z,95340.00
2024-04-19T11:31:55.467Z,95337.00
2024-04-19T11:32:55.461Z,95328.00
2024-04-19T11:33:55.501Z,95334.00
2024-04-19T11:34:55.519Z,95343.00
2024-04-19T11:35:55.581Z,95340.00
2024-04-19T11:36:55.784Z,95334.00
2024-04-19T11:37:55.731Z,95334.00
2024-04-19T11:38:55.822Z,95331.00
2024-04-19T11:39:55.866Z,95326.00
2024-04-19T11:40:55.936Z,95328.00
2024-04-19T11:41:55.999Z,95327.00
2024-04-19T11:42:56.133Z,95326.00
2024-04-19T11:43:56.163Z,95318.00
2024-04-19T11:44:56.246Z,95308.00
2024-04-19T11:45:56.365Z,95310.00